Pendleton, OR (97801)

11:04 AM PDT on July 26, 2016 (GMT -0700)
Sun Ridge Estates | | Change Station

Elev 1210 ft 45.65 °N, 118.79 °W | Updated 10 minutes ago

Clear
Clear
85.7 °F
Feels Like 84 °F
N
5.0
Wind Variable Wind from WSW
Gusts 13.0 mph

Today
High -- | Low -- °F
--% Chance of Precip.
Yesterday
High -- | Low -- °F
Precip. -- in
Pressure 29.96 in
Visibility 10.0 miles
Clouds Clear
Heat Index 84 °F
Dew Point 56 °F
Humidity 36%
Rainfall 0.00 in
Snow Depth Not available.
5:32 AM 8:30 PM
Waning Gibbous, 52% visible
METAR KPDT 261753Z 27015G20KT 10SM CLR 29/11 A3002 RMK AO2 SLP146 T02940106 10294 20172 58004
Pressure 29.96 in
Visibility 10.0 miles
Clouds Clear
Heat Index 84 °F
Dew Point 56 °F
Humidity 36%
Rainfall 0.00 in
Snow Depth Not available.
5:32 AM 8:30 PM
Waning Gibbous, 52% visible
METAR KPDT 261753Z 27015G20KT 10SM CLR 29/11 A3002 RMK AO2 SLP146 T02940106 10294 20172 58004

10-Day Weather Forecast

Almanac

Astronomy

Jul. 26, 2016 Rise Set
Actual Time
Civil Twilight
Nautical Twilight
Astronomical Twilight
Moon
Length of Visible Light
Length of Day
Tomorrow will be .
, % of the Moon is Illuminated

Today's Extremes

State Highs State Lows

Community

WunderPhotos

Upload Photos

1,927,650 photos uploaded!

WunderBlog® & News

Nearby

Air Quality

  Air Quality AQ Index Pollutant
Not available.

Snow Depth

Station Depth Elevation

Earthquake Activity

City Distance Mag. Time & Date
Minimum magnitude displayed is 2.5.

Coastal Water Temperatures

Place Temperature

Stations

Nearby Weather Stations

Station Location Temp. Windchill Dew Point Humidity Wind Precip. Elev Updated Type
                   

Watches & Warnings

There are currently no watches in effect.